Time;durP1;ratioP1;P1;durP2;ratioP2;P2;SDS_P1;SDS_P2;PMS_P1;PMS_P2;Temp;Humidity;BMP_temperature;BMP_pressure;BME280_temperature;BME280_humidity;BME280_pressure;Samples;Min_cycle;Max_cycle;Signal;HPM_P1;HPM_P2
2023/08/29 00:01:12;;;;;;;32.13;30.93;;;23.50;86.70;;;;;;4965125;28;20532;-47
2023/08/29 00:03:39;;;;;;;31.07;29.87;;;23.50;86.70;;;;;;4963716;28;20538;-47
2023/08/29 00:06:07;;;;;;;30.13;29.00;;;23.40;87.20;;;;;;4964521;28;20455;-46
2023/08/29 00:08:34;;;;;;;30.87;29.60;;;23.40;87.50;;;;;;4967497;28;20479;-47
2023/08/29 00:11:02;;;;;;;32.70;31.37;;;23.40;87.70;;;;;;4966962;28;20483;-47
2023/08/29 00:13:30;;;;;;;30.23;28.67;;;23.30;87.80;;;;;;4955507;28;21137;-47
2023/08/29 00:15:57;;;;;;;30.40;29.20;;;23.30;88.10;;;;;;4962431;28;20527;-47
2023/08/29 00:18:24;;;;;;;31.30;30.10;;;23.30;88.20;;;;;;4962500;28;21008;-46
2023/08/29 00:20:51;;;;;;;30.60;29.03;;;23.30;88.50;;;;;;4963477;28;20499;-46
2023/08/29 00:23:20;;;;;;;31.70;30.43;;;23.20;88.90;;;;;;4964435;28;20511;-48
2023/08/29 00:25:47;;;;;;;29.60;28.50;;;23.20;89.20;;;;;;4966172;28;20475;-46
2023/08/29 00:28:14;;;;;;;32.87;31.63;;;23.20;89.40;;;;;;4964330;28;20451;-48
2023/08/29 00:30:41;;;;;;;31.00;29.60;;;23.10;89.70;;;;;;4962567;28;20473;-47
2023/08/29 00:33:09;;;;;;;31.10;30.00;;;23.10;90.00;;;;;;4962789;28;20506;-47
2023/08/29 00:35:37;;;;;;;30.77;29.47;;;23.10;90.00;;;;;;4961805;28;20945;-47
2023/08/29 00:38:04;;;;;;;30.93;29.63;;;23.10;90.20;;;;;;4962016;28;21016;-47
2023/08/29 00:40:32;;;;;;;31.07;29.77;;;23.10;90.20;;;;;;4962793;28;20963;-46
2023/08/29 00:43:00;;;;;;;30.73;29.63;;;23.00;90.20;;;;;;4962417;28;20449;-47
2023/08/29 00:45:28;;;;;;;29.53;28.40;;;23.10;90.30;;;;;;4965122;28;20475;-46
2023/08/29 00:47:56;;;;;;;29.80;28.57;;;23.00;90.40;;;;;;4965667;28;20471;-48
2023/08/29 00:50:23;;;;;;;30.00;28.90;;;23.00;90.40;;;;;;4963235;28;20476;-46
2023/08/29 00:52:50;;;;;;;30.73;29.43;;;23.00;90.60;;;;;;4962818;28;20522;-48
2023/08/29 00:55:17;;;;;;;31.37;29.93;;;22.90;90.60;;;;;;4963327;28;20480;-48
2023/08/29 00:57:46;;;;;;;30.77;29.40;;;23.00;90.70;;;;;;4960610;28;20523;-47
2023/08/29 01:00:13;;;;;;;31.57;30.37;;;22.90;90.90;;;;;;4963375;28;20476;-46
2023/08/29 01:02:40;;;;;;;30.83;29.63;;;22.90;90.90;;;;;;4966450;28;20482;-46
2023/08/29 01:05:07;;;;;;;31.47;30.17;;;22.90;91.00;;;;;;4964165;28;20522;-47
2023/08/29 01:07:34;;;;;;;29.47;28.37;;;22.90;91.10;;;;;;4966364;28;20468;-47
2023/08/29 01:10:01;;;;;;;29.50;28.43;;;22.90;91.20;;;;;;4963416;28;20483;-47
2023/08/29 01:12:40;;;;;;;29.67;28.60;;;22.90;91.30;;;;;;4965830;28;20452;-47
2023/08/29 01:15:15;;;;;;;30.67;29.30;;;22.90;91.40;;;;;;4964672;28;20525;-47
2023/08/29 01:17:48;;;;;;;32.00;30.50;;;22.80;91.40;;;;;;4962429;28;20479;-46
2023/08/29 01:20:17;;;;;;;29.90;28.80;;;22.80;91.50;;;;;;4962270;28;20491;-46
2023/08/29 01:22:53;;;;;;;30.43;29.27;;;22.80;91.50;;;;;;4960264;28;20516;-46
2023/08/29 01:25:27;;;;;;;29.90;28.80;;;22.80;91.60;;;;;;4964717;28;20504;-47
2023/08/29 01:27:57;;;;;;;29.13;27.93;;;22.80;91.70;;;;;;4963698;28;20468;-47
2023/08/29 01:30:25;;;;;;;30.50;29.40;;;22.80;91.70;;;;;;4962850;28;20484;-46
2023/08/29 01:32:52;;;;;;;31.73;30.43;;;22.80;91.90;;;;;;4963197;28;20475;-47
2023/08/29 01:35:21;;;;;;;30.27;29.17;;;22.70;91.80;;;;;;4962925;28;20455;-47
2023/08/29 01:37:48;;;;;;;31.60;30.13;;;22.80;91.90;;;;;;4965453;28;20656;-47
2023/08/29 01:40:15;;;;;;;30.07;28.97;;;22.70;91.80;;;;;;4963747;28;20483;-46
2023/08/29 01:42:42;;;;;;;31.60;30.30;;;22.70;91.90;;;;;;4962207;28;20445;-46
2023/08/29 01:45:10;;;;;;;30.83;29.50;;;22.70;92.00;;;;;;4962072;28;20508;-46
2023/08/29 01:47:37;;;;;;;31.87;30.63;;;22.70;92.00;;;;;;4964668;28;20475;-47
2023/08/29 01:50:07;;;;;;;30.30;29.20;;;22.70;92.10;;;;;;4964995;28;20490;-47
2023/08/29 01:52:34;;;;;;;30.20;29.10;;;22.70;92.00;;;;;;4954168;28;20484;-49
2023/08/29 01:55:00;;;;;;;29.10;28.00;;;22.70;92.10;;;;;;4961815;28;20979;-47
2023/08/29 01:57:29;;;;;;;29.50;28.27;;;22.70;92.30;;;;;;4963782;28;20472;-47
2023/08/29 01:59:57;;;;;;;28.50;27.50;;;22.60;92.20;;;;;;4962996;28;20484;-47
2023/08/29 02:02:25;;;;;;;30.63;29.53;;;22.60;92.40;;;;;;4962535;28;20881;-46
2023/08/29 02:04:52;;;;;;;30.03;28.83;;;22.70;92.80;;;;;;4961345;28;21054;-47
2023/08/29 02:07:19;;;;;;;29.77;28.67;;;22.60;92.40;;;;;;4964163;28;20972;-46
2023/08/29 02:09:46;;;;;;;30.67;29.47;;;22.60;92.40;;;;;;4966222;28;20483;-48
2023/08/29 02:12:13;;;;;;;31.50;30.10;;;22.60;92.60;;;;;;4963549;28;20982;-48
2023/08/29 02:14:40;;;;;;;34.00;32.80;;;22.60;92.50;;;;;;4961387;28;21012;-47
2023/08/29 02:17:07;;;;;;;30.13;28.90;;;22.60;92.70;;;;;;4962160;28;20975;-47
2023/08/29 02:19:35;;;;;;;31.33;30.13;;;22.60;92.60;;;;;;4947949;28;20936;-49
2023/08/29 02:22:02;;;;;;;31.73;30.43;;;22.60;92.80;;;;;;4965345;28;20476;-47
2023/08/29 02:24:30;;;;;;;30.47;29.33;;;22.60;92.80;;;;;;4961774;28;20527;-47
2023/08/29 02:26:57;;;;;;;29.20;28.10;;;22.60;92.80;;;;;;4961093;28;20473;-48
2023/08/29 02:29:23;;;;;;;34.73;33.43;;;22.60;92.90;;;;;;4962355;28;20476;-47
2023/08/29 02:31:50;;;;;;;29.17;28.17;;;22.60;92.90;;;;;;4961250;28;20471;-47
2023/08/29 02:34:17;;;;;;;29.57;28.33;;;22.50;93.00;;;;;;4959639;28;20500;-47
2023/08/29 02:36:45;;;;;;;29.80;28.70;;;22.60;93.10;;;;;;4957851;28;20473;-47
2023/08/29 02:39:12;;;;;;;30.13;29.03;;;22.60;93.20;;;;;;4957949;28;20521;-46
2023/08/29 02:41:39;;;;;;;30.10;28.97;;;22.50;93.10;;;;;;4961052;28;20475;-48
2023/08/29 02:44:06;;;;;;;28.90;27.80;;;22.50;93.20;;;;;;4960944;28;20990;-47
2023/08/29 02:46:33;;;;;;;30.10;28.53;;;22.50;93.20;;;;;;4958195;28;20949;-47
2023/08/29 02:49:00;;;;;;;30.93;29.73;;;22.50;93.30;;;;;;4963885;28;20477;-47
2023/08/29 02:51:26;;;;;;;29.77;28.50;;;22.50;93.30;;;;;;4965819;28;20484;-47
2023/08/29 02:53:55;;;;;;;31.00;29.67;;;22.50;93.40;;;;;;4967428;28;20503;-46
2023/08/29 02:56:22;;;;;;;30.50;29.40;;;22.50;93.30;;;;;;4965912;28;20506;-46
2023/08/29 02:58:50;;;;;;;29.73;28.63;;;22.50;93.50;;;;;;4963978;28;20523;-47
2023/08/29 03:01:17;;;;;;;31.30;30.20;;;22.50;93.50;;;;;;4961722;28;20528;-47
2023/08/29 03:03:44;;;;;;;32.80;31.60;;;22.50;93.50;;;;;;4963802;28;20908;-47
2023/08/29 03:06:11;;;;;;;31.83;30.63;;;22.50;94.00;;;;;;4963486;28;20903;-47
2023/08/29 03:08:38;;;;;;;33.43;32.03;;;22.50;93.70;;;;;;4960660;28;20437;-47
2023/08/29 03:11:06;;;;;;;31.37;30.23;;;22.50;93.80;;;;;;4960721;28;20496;-48
2023/08/29 03:13:33;;;;;;;31.17;30.07;;;22.50;93.90;;;;;;4963535;28;20487;-47
2023/08/29 03:16:00;;;;;;;32.80;31.60;;;22.50;93.90;;;;;;4963544;28;20480;-47
2023/08/29 03:18:27;;;;;;;32.00;30.60;;;22.40;93.90;;;;;;4961344;28;20562;-47
2023/08/29 03:20:55;;;;;;;34.27;32.70;;;22.40;93.90;;;;;;4960544;28;20483;-47
2023/08/29 03:23:22;;;;;;;33.33;32.13;;;22.50;94.00;;;;;;4961867;28;20475;-47
2023/08/29 03:25:49;;;;;;;33.67;32.47;;;22.40;94.30;;;;;;4960633;28;20919;-47
2023/08/29 03:28:17;;;;;;;34.43;33.03;;;22.40;94.00;;;;;;4961121;28;20468;-47
2023/08/29 03:30:45;;;;;;;34.30;32.83;;;22.40;94.10;;;;;;4963780;28;20479;-47
2023/08/29 03:33:11;;;;;;;32.97;31.80;;;22.40;94.10;;;;;;4963268;28;20450;-47
2023/08/29 03:35:38;;;;;;;31.67;30.57;;;22.40;94.00;;;;;;4959623;28;20484;-47
2023/08/29 03:38:05;;;;;;;34.87;33.47;;;22.40;94.10;;;;;;4960175;28;20512;-47
2023/08/29 03:40:32;;;;;;;32.03;30.83;;;22.40;94.10;;;;;;4962929;28;20531;-47
2023/08/29 03:42:59;;;;;;;32.63;31.53;;;22.40;94.20;;;;;;4963428;28;20535;-47
2023/08/29 03:45:27;;;;;;;31.33;30.23;;;22.40;94.40;;;;;;4954276;28;20536;-47
2023/08/29 03:47:54;;;;;;;34.53;33.33;;;22.40;94.30;;;;;;4963432;28;20498;-47
2023/08/29 03:50:21;;;;;;;33.70;32.40;;;22.40;94.40;;;;;;4962009;28;20467;-47
2023/08/29 03:52:48;;;;;;;33.03;31.83;;;22.40;94.50;;;;;;4960061;28;20477;-47
2023/08/29 03:55:15;;;;;;;32.10;31.00;;;22.40;94.40;;;;;;4963423;28;20549;-47
2023/08/29 03:57:42;;;;;;;32.67;31.50;;;22.40;94.40;;;;;;4959690;28;20452;-47
2023/08/29 04:00:10;;;;;;;35.50;34.30;;;22.40;94.40;;;;;;4959427;28;20575;-47
2023/08/29 04:02:40;;;;;;;33.70;32.60;;;22.40;94.50;;;;;;4952061;28;20445;-47
2023/08/29 04:05:15;;;;;;;35.00;33.80;;;22.40;94.60;;;;;;4962856;28;20467;-47
2023/08/29 04:07:42;;;;;;;34.80;33.57;;;22.40;94.60;;;;;;4952602;28;20498;-48
2023/08/29 04:10:10;;;;;;;34.30;33.00;;;22.40;94.70;;;;;;4959752;28;20819;-46
2023/08/29 04:12:37;;;;;;;36.00;34.77;;;22.30;94.60;;;;;;4962917;28;20487;-47
2023/08/29 04:15:04;;;;;;;37.20;35.90;;;22.40;94.60;;;;;;4962693;28;20914;-47
2023/08/29 04:17:31;;;;;;;37.30;36.00;;;22.40;94.70;;;;;;4960327;28;20480;-47
2023/08/29 04:20:00;;;;;;;36.20;35.00;;;22.30;94.70;;;;;;4959518;28;20508;-46
2023/08/29 04:22:27;;;;;;;35.60;34.30;;;22.40;94.80;;;;;;4961482;28;20448;-46
2023/08/29 04:24:54;;;;;;;36.37;35.03;;;22.30;94.80;;;;;;5045572;22;20493;-49
2023/08/29 04:27:21;;;;;;;38.57;37.17;;;22.40;95.00;;;;;;5072370;28;20941;-55
2023/08/29 04:29:48;;;;;;;38.27;36.87;;;22.40;94.80;;;;;;5072405;28;20495;-50
2023/08/29 04:32:15;;;;;;;38.73;37.33;;;22.40;94.90;;;;;;5071936;28;20435;-49
2023/08/29 04:34:42;;;;;;;36.57;35.27;;;22.30;94.90;;;;;;5072048;28;20469;-49
2023/08/29 04:37:11;;;;;;;36.20;34.90;;;22.30;94.90;;;;;;5072395;28;20462;-53
2023/08/29 04:39:38;;;;;;;37.40;36.10;;;22.40;95.10;;;;;;5072062;28;20471;-49
2023/08/29 04:42:06;;;;;;;35.87;34.57;;;22.30;95.10;;;;;;5072166;28;20831;-49
2023/08/29 04:44:33;;;;;;;36.10;34.80;;;22.30;95.10;;;;;;5071207;28;20498;-50
2023/08/29 04:47:00;;;;;;;37.73;36.13;;;22.30;95.10;;;;;;5072045;28;20447;-49
2023/08/29 04:49:27;;;;;;;39.40;37.63;;;22.40;95.10;;;;;;5071984;28;20470;-50
2023/08/29 04:51:55;;;;;;;39.53;37.83;;;22.40;95.20;;;;;;5070911;28;20459;-52
2023/08/29 04:54:23;;;;;;;40.03;38.13;;;22.40;95.80;;;;;;5071545;28;20516;-49
2023/08/29 04:56:50;;;;;;;42.33;40.00;;;22.40;97.10;;;;;;5071776;28;20873;-51
2023/08/29 04:59:17;;;;;;;40.57;38.70;;;22.40;97.80;;;;;;5067219;28;20918;-48
2023/08/29 05:01:44;;;;;;;40.70;38.47;;;22.40;98.50;;;;;;5071267;28;20474;-52
2023/08/29 05:04:12;;;;;;;37.87;36.03;;;22.40;98.30;;;;;;5071172;28;20466;-50
2023/08/29 05:06:39;;;;;;;41.97;39.97;;;22.40;98.50;;;;;;5071638;28;20530;-50
2023/08/29 05:09:07;;;;;;;38.70;36.93;;;22.40;98.40;;;;;;5071547;28;20435;-50
2023/08/29 05:11:36;;;;;;;37.90;36.00;;;22.40;98.20;;;;;;5071495;28;20850;-50
2023/08/29 05:14:03;;;;;;;38.93;37.03;;;22.40;98.20;;;;;;5071511;28;20939;-52
2023/08/29 05:16:32;;;;;;;38.27;36.40;;;22.40;98.20;;;;;;5071575;28;20445;-48
2023/08/29 05:18:59;;;;;;;39.27;37.10;;;22.40;98.10;;;;;;5071408;28;20479;-48
2023/08/29 05:21:26;;;;;;;38.47;36.77;;;22.40;98.30;;;;;;5071302;28;20981;-50
2023/08/29 05:23:54;;;;;;;36.70;35.10;;;22.40;97.80;;;;;;5071346;28;20444;-50
2023/08/29 05:26:21;;;;;;;40.27;38.43;;;22.40;97.70;;;;;;5071153;28;20439;-51
2023/08/29 05:28:49;;;;;;;39.73;37.47;;;22.40;97.70;;;;;;5071413;28;20493;-49
2023/08/29 05:31:16;;;;;;;38.03;36.00;;;22.40;97.70;;;;;;5071282;28;20471;-49
2023/08/29 05:33:43;;;;;;;35.60;34.00;;;22.40;97.50;;;;;;5071296;28;20471;-48
2023/08/29 05:36:10;;;;;;;37.10;35.50;;;22.40;97.30;;;;;;5071100;28;20974;-50
2023/08/29 05:38:37;;;;;;;36.87;35.03;;;22.40;97.30;;;;;;5071237;28;20871;-51
2023/08/29 05:41:04;;;;;;;36.73;35.10;;;22.40;97.60;;;;;;5071183;28;20446;-47
2023/08/29 05:43:31;;;;;;;37.53;36.03;;;22.40;97.20;;;;;;5071122;28;20467;-48
2023/08/29 05:45:59;;;;;;;39.80;37.90;;;22.40;97.10;;;;;;5070897;28;20483;-51
2023/08/29 05:48:26;;;;;;;40.33;38.43;;;22.40;96.90;;;;;;5070938;28;20470;-50
2023/08/29 05:50:52;;;;;;;37.13;35.63;;;22.40;96.90;;;;;;5071140;28;20478;-49
2023/08/29 05:53:19;;;;;;;40.83;38.10;;;22.40;96.80;;;;;;5071234;28;20879;-55
2023/08/29 05:55:47;;;;;;;36.23;34.50;;;22.40;96.80;;;;;;5071001;28;20451;-53
2023/08/29 05:58:14;;;;;;;38.60;37.00;;;22.40;96.70;;;;;;5071072;28;20524;-54
2023/08/29 06:00:41;;;;;;;39.93;38.07;;;22.40;96.70;;;;;;5070919;28;20507;-49
2023/08/29 06:03:10;;;;;;;38.27;36.60;;;22.40;96.60;;;;;;5071047;28;20474;-48
2023/08/29 06:05:38;;;;;;;39.37;37.77;;;22.40;96.60;;;;;;5070602;28;20831;-49
2023/08/29 06:08:06;;;;;;;38.50;37.00;;;22.40;96.80;;;;;;5071011;28;20965;-48
2023/08/29 06:10:33;;;;;;;38.10;36.20;;;22.40;96.40;;;;;;5070746;28;20851;-52
2023/08/29 06:13:00;;;;;;;37.50;36.10;;;22.40;96.40;;;;;;5070885;28;20701;-51
2023/08/29 06:15:27;;;;;;;39.53;37.60;;;22.40;96.30;;;;;;5070540;28;20495;-51
2023/08/29 06:17:54;;;;;;;36.57;35.03;;;22.40;96.20;;;;;;5070883;28;20954;-52
2023/08/29 06:20:22;;;;;;;38.90;37.10;;;22.40;96.10;;;;;;5070507;28;20503;-50
2023/08/29 06:22:49;;;;;;;37.77;36.20;;;22.40;96.10;;;;;;5073551;28;20867;-52
2023/08/29 06:25:16;;;;;;;38.93;37.43;;;22.40;96.10;;;;;;5074334;28;20617;-49
2023/08/29 06:27:43;;;;;;;38.07;36.60;;;22.40;96.10;;;;;;5066480;28;20444;-49
2023/08/29 06:30:13;;;;;;;42.87;41.17;;;22.40;96.00;;;;;;5074556;28;20427;-49
2023/08/29 06:32:40;;;;;;;42.17;40.37;;;22.40;96.00;;;;;;5074450;28;20442;-50
2023/08/29 06:35:09;;;;;;;38.13;36.73;;;22.40;96.30;;;;;;5074181;28;21577;-49
2023/08/29 06:37:37;;;;;;;37.90;36.40;;;22.40;95.80;;;;;;5074339;28;20507;-49
2023/08/29 06:40:05;;;;;;;39.90;38.40;;;22.40;95.90;;;;;;5074386;28;20498;-49
2023/08/29 06:42:32;;;;;;;35.30;34.00;;;22.40;95.80;;;;;;5074341;28;20449;-49
2023/08/29 06:44:59;;;;;;;36.63;35.30;;;22.40;95.80;;;;;;5074061;28;20899;-48
2023/08/29 06:47:26;;;;;;;38.03;36.63;;;22.40;95.80;;;;;;5074097;28;20455;-51
2023/08/29 06:49:54;;;;;;;39.03;37.53;;;22.40;95.70;;;;;;5074196;28;20459;-49
2023/08/29 06:52:21;;;;;;;40.30;38.50;;;22.40;96.00;;;;;;5073994;28;20443;-49
2023/08/29 06:54:50;;;;;;;39.33;37.67;;;22.40;95.60;;;;;;5073825;28;20487;-50
2023/08/29 06:57:17;;;;;;;38.33;36.83;;;22.40;95.70;;;;;;5074066;28;20471;-49
2023/08/29 06:59:44;;;;;;;39.07;37.57;;;22.40;95.60;;;;;;5065720;28;20519;-49
2023/08/29 07:02:11;;;;;;;39.87;38.17;;;22.40;95.50;;;;;;5073989;28;20440;-51
2023/08/29 07:04:38;;;;;;;37.60;36.03;;;22.40;95.60;;;;;;5073582;28;20471;-48
2023/08/29 07:07:05;;;;;;;37.07;35.57;;;22.40;95.50;;;;;;5073877;28;20463;-46
2023/08/29 07:09:31;;;;;;;36.63;35.23;;;22.40;95.50;;;;;;5073834;28;20847;-51
2023/08/29 07:11:59;;;;;;;37.83;36.33;;;22.40;95.40;;;;;;5073881;28;20470;-52
2023/08/29 07:14:26;;;;;;;38.13;36.53;;;22.40;95.50;;;;;;5073498;28;20359;-49
2023/08/29 07:16:53;;;;;;;38.93;37.37;;;22.40;95.40;;;;;;5073904;28;20737;-48
2023/08/29 07:19:20;;;;;;;36.03;34.57;;;22.40;95.40;;;;;;5073357;28;20515;-51
2023/08/29 07:21:47;;;;;;;37.70;36.20;;;22.40;95.40;;;;;;5073537;28;20496;-49
2023/08/29 07:24:14;;;;;;;39.20;37.60;;;22.40;95.30;;;;;;5073243;28;20471;-50
2023/08/29 07:26:40;;;;;;;36.63;35.23;;;22.40;95.30;;;;;;5073544;28;20505;-49
2023/08/29 07:29:09;;;;;;;36.63;34.90;;;22.40;95.30;;;;;;5073501;28;20471;-50
2023/08/29 07:31:35;;;;;;;36.87;35.37;;;22.40;95.30;;;;;;5073333;28;20482;-48
2023/08/29 07:34:03;;;;;;;36.70;35.30;;;22.40;95.30;;;;;;5071789;28;20474;-51
2023/08/29 07:36:29;;;;;;;36.93;35.40;;;22.40;95.20;;;;;;5073233;28;20450;-48
2023/08/29 07:38:57;;;;;;;38.67;37.17;;;22.40;95.20;;;;;;5073382;28;20478;-50
2023/08/29 07:41:24;;;;;;;38.50;37.00;;;22.40;95.10;;;;;;5073172;28;20928;-49
2023/08/29 07:43:51;;;;;;;38.73;37.23;;;22.40;95.20;;;;;;5073004;28;20972;-48
2023/08/29 07:46:19;;;;;;;37.20;35.70;;;22.40;95.20;;;;;;5073318;28;20508;-52
2023/08/29 07:48:46;;;;;;;40.60;39.00;;;22.30;95.10;;;;;;5073051;28;20472;-51
2023/08/29 07:51:13;;;;;;;38.10;36.50;;;22.40;95.10;;;;;;5073022;28;20471;-50
2023/08/29 07:53:40;;;;;;;38.30;36.80;;;22.40;95.10;;;;;;5072964;28;20440;-51
2023/08/29 07:56:07;;;;;;;37.27;35.80;;;22.40;95.20;;;;;;5072735;28;20495;-51
2023/08/29 07:58:34;;;;;;;38.83;37.23;;;22.40;95.10;;;;;;5072937;28;20475;-49
2023/08/29 08:01:01;;;;;;;37.17;35.67;;;22.40;95.00;;;;;;5072822;28;20493;-48
2023/08/29 08:03:30;;;;;;;36.97;35.57;;;22.40;95.10;;;;;;5072636;28;20997;-49
2023/08/29 08:05:57;;;;;;;35.43;34.10;;;22.40;95.00;;;;;;5072512;28;20959;-48
2023/08/29 08:08:24;;;;;;;36.10;34.50;;;22.40;95.00;;;;;;5072617;28;20438;-50
2023/08/29 08:10:51;;;;;;;36.30;34.70;;;22.40;95.00;;;;;;5072660;28;20474;-50
2023/08/29 08:13:17;;;;;;;35.70;34.30;;;22.40;95.00;;;;;;5072648;28;20482;-48
2023/08/29 08:15:44;;;;;;;36.93;35.43;;;22.40;95.00;;;;;;5072253;28;20513;-50
2023/08/29 08:18:11;;;;;;;37.23;35.83;;;22.40;94.90;;;;;;5072511;28;20435;-48
2023/08/29 08:20:39;;;;;;;36.53;34.87;;;22.40;94.90;;;;;;5072377;28;20503;-49
2023/08/29 08:23:06;;;;;;;36.43;34.90;;;22.40;94.90;;;;;;5072435;28;20482;-49
2023/08/29 08:25:33;;;;;;;37.00;35.60;;;22.40;94.90;;;;;;5072008;28;20540;-54
2023/08/29 08:28:00;;;;;;;35.90;34.40;;;22.40;94.90;;;;;;5072501;28;20471;-55
2023/08/29 08:30:28;;;;;;;35.03;33.40;;;22.40;94.90;;;;;;5072098;28;20448;-52
2023/08/29 08:32:55;;;;;;;36.70;35.10;;;22.40;94.90;;;;;;5072146;28;20938;-52
2023/08/29 08:35:22;;;;;;;33.07;31.83;;;22.40;94.90;;;;;;5071944;28;21018;-54
2023/08/29 08:37:50;;;;;;;36.17;34.47;;;22.40;94.90;;;;;;5064311;28;20475;-51
2023/08/29 08:40:18;;;;;;;35.93;34.50;;;22.40;94.90;;;;;;5072022;28;20479;-50
2023/08/29 08:42:46;;;;;;;35.97;34.50;;;22.40;94.80;;;;;;5072019;28;20506;-49
2023/08/29 08:45:13;;;;;;;34.23;32.93;;;22.40;94.80;;;;;;5071418;28;20494;-54
2023/08/29 08:47:40;;;;;;;36.60;35.00;;;22.40;94.80;;;;;;5071839;28;20974;-53
2023/08/29 08:50:09;;;;;;;35.33;33.93;;;22.40;94.80;;;;;;5071855;28;20470;-50
2023/08/29 08:52:36;;;;;;;36.47;35.07;;;22.40;94.80;;;;;;5071786;28;20467;-50
2023/08/29 08:55:06;;;;;;;35.90;34.50;;;22.40;94.80;;;;;;5071630;28;20537;-47
2023/08/29 08:57:33;;;;;;;37.40;35.80;;;22.40;94.70;;;;;;5071685;28;20450;-51
2023/08/29 09:00:00;;;;;;;37.73;36.03;;;22.40;94.70;;;;;;5071648;28;20845;-50
2023/08/29 09:02:28;;;;;;;36.13;34.73;;;22.40;94.70;;;;;;5071428;28;20475;-50
2023/08/29 09:04:55;;;;;;;35.87;34.47;;;22.40;94.70;;;;;;5071392;28;20486;-46
2023/08/29 09:07:22;;;;;;;35.63;34.03;;;22.40;94.70;;;;;;5071596;28;20866;-50
2023/08/29 09:10:09;;;;;;;34.23;32.90;;;22.40;94.70;;;;;;5063350;28;20861;-49
2023/08/29 09:12:36;;;;;;;36.97;35.57;;;22.40;94.70;;;;;;5071407;28;20435;-52
2023/08/29 09:15:05;;;;;;;34.57;33.27;;;22.40;94.60;;;;;;5071181;28;20479;-48
2023/08/29 09:17:33;;;;;;;36.50;34.43;;;22.40;94.70;;;;;;5071314;28;20469;-50
2023/08/29 09:20:05;;;;;;;34.40;33.10;;;22.40;94.70;;;;;;5071186;28;21136;-50
2023/08/29 09:22:32;;;;;;;35.90;34.33;;;22.40;94.60;;;;;;5071317;28;20461;-49
2023/08/29 09:25:03;;;;;;;37.50;36.10;;;22.40;94.70;;;;;;5071198;28;20498;-48
2023/08/29 09:27:40;;;;;;;39.23;37.63;;;22.40;94.70;;;;;;5071356;28;20461;-52
2023/08/29 09:30:11;;;;;;;37.40;36.00;;;22.40;94.70;;;;;;5071260;28;20435;-54
2023/08/29 09:32:41;;;;;;;36.93;35.53;;;22.40;94.70;;;;;;5071200;28;20439;-49
2023/08/29 09:35:08;;;;;;;35.10;33.73;;;22.40;94.70;;;;;;5071017;28;20883;-48
2023/08/29 09:37:41;;;;;;;35.50;34.10;;;22.40;94.70;;;;;;5071078;28;20497;-50
2023/08/29 09:40:10;;;;;;;35.70;34.30;;;22.40;94.70;;;;;;5071140;28;20558;-49
2023/08/29 09:42:38;;;;;;;37.60;36.10;;;22.40;94.60;;;;;;5071219;28;20443;-48
2023/08/29 09:45:08;;;;;;;37.53;35.83;;;22.40;94.60;;;;;;5070933;28;20478;-52
2023/08/29 09:47:35;;;;;;;37.43;36.03;;;22.40;94.60;;;;;;5070995;28;20435;-49
2023/08/29 09:50:03;;;;;;;38.40;36.90;;;22.40;94.60;;;;;;5071130;28;20437;-51
2023/08/29 09:52:30;;;;;;;35.70;34.27;;;22.40;94.60;;;;;;5070841;28;20443;-53
2023/08/29 09:54:58;;;;;;;37.00;35.60;;;22.40;94.60;;;;;;5070813;28;20459;-50
2023/08/29 09:57:31;;;;;;;34.77;33.37;;;22.40;94.60;;;;;;5073372;28;20435;-48
2023/08/29 10:00:01;;;;;;;35.20;33.80;;;22.40;94.60;;;;;;5067912;28;20439;-50
2023/08/29 10:02:31;;;;;;;36.40;35.00;;;22.40;94.60;;;;;;5075082;28;20443;-47
2023/08/29 10:05:05;;;;;;;35.00;33.70;;;22.40;94.50;;;;;;5074925;28;20459;-49
2023/08/29 10:07:42;;;;;;;37.50;36.10;;;22.40;94.60;;;;;;5075009;28;20449;-55
2023/08/29 10:10:10;;;;;;;38.80;37.40;;;22.40;94.60;;;;;;5074864;28;20427;-52
2023/08/29 10:12:38;;;;;;;36.97;35.50;;;22.40;94.60;;;;;;5074841;28;20523;-54
2023/08/29 10:15:08;;;;;;;38.53;37.03;;;22.40;94.50;;;;;;5074705;28;20490;-47
2023/08/29 10:17:37;;;;;;;37.07;35.57;;;22.40;94.60;;;;;;5074753;28;20950;-50
2023/08/29 10:20:09;;;;;;;36.77;35.30;;;22.40;94.70;;;;;;5074966;28;20439;-49
2023/08/29 10:22:38;;;;;;;36.90;35.50;;;22.40;94.50;;;;;;5074706;28;20481;-48
2023/08/29 10:25:06;;;;;;;35.40;34.07;;;22.50;94.60;;;;;;5074654;28;20502;-48
2023/08/29 10:27:34;;;;;;;36.37;34.97;;;22.40;94.50;;;;;;5074636;28;20439;-47
2023/08/29 10:30:01;;;;;;;36.43;35.03;;;22.40;94.50;;;;;;5074580;28;20466;-50
2023/08/29 10:32:31;;;;;;;38.57;36.90;;;22.40;94.50;;;;;;5074324;28;20474;-49
2023/08/29 10:34:58;;;;;;;34.93;33.53;;;22.40;94.50;;;;;;5074606;28;20479;-48
2023/08/29 10:37:28;;;;;;;35.60;34.30;;;22.40;94.50;;;;;;5074799;28;20934;-46
2023/08/29 10:40:10;;;;;;;35.43;33.93;;;22.40;94.50;;;;;;5066509;28;20436;-48
2023/08/29 10:42:51;;;;;;;33.60;32.27;;;22.50;94.50;;;;;;5074278;28;20442;-51
2023/08/29 10:45:19;;;;;;;35.80;34.40;;;22.50;94.50;;;;;;5073933;28;21033;-49
2023/08/29 10:47:48;;;;;;;37.70;36.17;;;22.50;94.50;;;;;;5074126;28;20493;-52
2023/08/29 10:50:21;;;;;;;36.37;34.97;;;22.50;94.50;;;;;;5074099;28;20435;-49
2023/08/29 10:52:50;;;;;;;37.00;35.60;;;22.50;94.50;;;;;;5074093;28;20526;-49
2023/08/29 10:55:22;;;;;;;36.80;35.40;;;22.40;94.40;;;;;;5073906;28;20466;-48
2023/08/29 10:57:49;;;;;;;37.27;35.87;;;22.50;94.50;;;;;;5074039;28;20447;-50
2023/08/29 11:00:18;;;;;;;36.53;35.13;;;22.50;94.40;;;;;;5073885;28;20960;-51
2023/08/29 11:02:47;;;;;;;38.40;36.90;;;22.50;94.50;;;;;;5073886;28;20467;-49
2023/08/29 11:05:16;;;;;;;35.63;34.23;;;22.50;94.50;;;;;;5073706;28;20470;-51
2023/08/29 11:07:43;;;;;;;36.83;35.43;;;22.50;94.50;;;;;;5073528;28;20496;-49
2023/08/29 11:10:21;;;;;;;37.37;35.87;;;22.50;94.40;;;;;;5073918;28;20439;-52
2023/08/29 11:13:06;;;;;;;35.60;34.20;;;22.50;94.40;;;;;;5073751;28;20539;-47
2023/08/29 11:16:05;;;;;;;36.00;34.60;;;22.50;94.40;;;;;;5073322;28;20837;-50
2023/08/29 11:18:33;;;;;;;38.37;36.77;;;22.50;94.40;;;;;;5073491;28;20935;-51
2023/08/29 11:21:09;;;;;;;37.73;36.23;;;22.50;94.40;;;;;;5073544;28;20563;-49
2023/08/29 11:23:39;;;;;;;36.87;35.37;;;22.50;94.40;;;;;;5073746;28;20474;-51
2023/08/29 11:26:08;;;;;;;37.57;36.07;;;22.50;94.40;;;;;;5073278;28;20974;-48
2023/08/29 11:28:39;;;;;;;39.17;37.67;;;22.50;94.40;;;;;;5073521;28;20456;-52
2023/08/29 11:31:06;;;;;;;38.23;36.80;;;22.50;94.40;;;;;;5073551;28;20467;-47
2023/08/29 11:33:34;;;;;;;35.20;33.80;;;22.50;94.40;;;;;;5073342;28;20478;-53
2023/08/29 11:36:02;;;;;;;36.50;35.10;;;22.50;94.30;;;;;;5073121;28;20462;-47
2023/08/29 11:38:32;;;;;;;36.77;35.27;;;22.50;94.30;;;;;;5073392;28;20444;-52
2023/08/29 11:41:00;;;;;;;36.40;35.00;;;22.50;94.30;;;;;;5065562;28;20514;-48
2023/08/29 11:43:27;;;;;;;35.40;34.00;;;22.50;94.30;;;;;;5073332;28;20511;-47
2023/08/29 11:45:57;;;;;;;35.20;33.80;;;22.60;94.30;;;;;;5072769;28;20808;-48
2023/08/29 11:48:24;;;;;;;36.90;35.50;;;22.50;94.30;;;;;;5073232;28;20444;-51
2023/08/29 11:50:55;;;;;;;36.30;34.80;;;22.50;94.30;;;;;;5073053;28;20470;-49
2023/08/29 11:53:28;;;;;;;35.00;33.70;;;22.50;94.30;;;;;;5073167;28;20476;-52
2023/08/29 11:55:56;;;;;;;35.63;34.23;;;22.60;94.30;;;;;;5072756;28;20779;-51
2023/08/29 11:58:28;;;;;;;36.07;34.67;;;22.60;94.30;;;;;;5073035;28;20477;-48
2023/08/29 12:00:55;;;;;;;36.00;34.60;;;22.50;94.30;;;;;;5072822;28;20486;-48
2023/08/29 12:03:26;;;;;;;35.10;33.70;;;22.60;94.30;;;;;;5072989;28;20514;-48
2023/08/29 12:05:56;;;;;;;34.30;33.00;;;22.60;94.30;;;;;;5072614;28;20455;-49
2023/08/29 12:08:40;;;;;;;34.40;33.10;;;22.60;94.30;;;;;;5072909;28;20542;-49
2023/08/29 12:11:10;;;;;;;32.97;31.67;;;22.60;94.30;;;;;;5065999;28;20537;-48
2023/08/29 12:13:37;;;;;;;34.27;32.87;;;22.60;94.30;;;;;;5072701;28;20946;-51
2023/08/29 12:16:13;;;;;;;35.40;34.00;;;22.60;94.30;;;;;;5072347;28;20487;-51
2023/08/29 12:18:40;;;;;;;34.10;32.60;;;22.60;94.30;;;;;;5072335;28;20942;-50
2023/08/29 12:21:15;;;;;;;33.50;32.10;;;22.60;94.30;;;;;;5071969;28;20550;-51
2023/08/29 12:23:43;;;;;;;35.93;34.53;;;22.60;94.30;;;;;;5072686;28;20466;-49
2023/08/29 12:26:11;;;;;;;33.70;32.40;;;22.60;94.30;;;;;;5072232;28;20460;-49
2023/08/29 12:28:39;;;;;;;34.33;33.03;;;22.60;94.20;;;;;;5072278;28;20463;-48
2023/08/29 12:31:06;;;;;;;36.90;35.30;;;22.60;94.20;;;;;;5072379;28;20451;-48
2023/08/29 12:33:33;;;;;;;34.90;33.60;;;22.60;94.20;;;;;;5072159;28;20476;-51